createdAt,value
2018-02-03T00:00:50.649Z,94.10
2018-02-03T00:03:18.830Z,94.20
2018-02-03T00:05:47.020Z,94.30
2018-02-03T00:08:15.241Z,94.40
2018-02-03T00:10:43.414Z,94.60
2018-02-03T00:13:11.584Z,94.70
2018-02-03T00:15:39.762Z,94.90
2018-02-03T00:18:08.007Z,94.90
2018-02-03T00:20:36.954Z,94.60
2018-02-03T00:23:05.142Z,94.60
2018-02-03T00:25:33.318Z,94.40
2018-02-03T00:28:01.544Z,94.50
2018-02-03T00:30:29.730Z,94.30
2018-02-03T00:32:57.909Z,94.30
2018-02-03T00:35:26.092Z,94.40
2018-02-03T00:37:54.273Z,94.60
2018-02-03T00:40:23.220Z,94.50
2018-02-03T00:42:51.422Z,94.40
2018-02-03T00:45:19.592Z,94.50
2018-02-03T00:47:47.750Z,94.60
2018-02-03T00:50:15.923Z,94.30
2018-02-03T00:52:44.125Z,94.30
2018-02-03T00:55:12.308Z,94.30
2018-02-03T00:57:40.474Z,94.40
2018-02-03T01:00:08.639Z,94.30
2018-02-03T01:02:36.801Z,94.30
2018-02-03T01:05:04.966Z,94.30
2018-02-03T01:07:33.169Z,94.40
2018-02-03T01:10:01.330Z,94.40
2018-02-03T01:12:29.497Z,94.40
2018-02-03T01:14:57.708Z,94.40
2018-02-03T01:17:25.885Z,94.40
2018-02-03T01:19:54.057Z,94.30
2018-02-03T01:22:22.253Z,94.30
2018-02-03T01:24:50.417Z,94.30
2018-02-03T01:27:18.613Z,94.30
2018-02-03T01:29:46.835Z,94.30
2018-02-03T01:32:15.012Z,94.20
2018-02-03T01:34:43.198Z,94.20
2018-02-03T01:37:11.362Z,94.30
2018-02-03T01:39:39.545Z,94.30
2018-02-03T01:42:07.757Z,94.20
2018-02-03T01:44:35.951Z,94.20
2018-02-03T01:47:04.900Z,94.10
2018-02-03T01:49:33.058Z,94.10
2018-02-03T01:52:01.239Z,94.20
2018-02-03T01:54:29.424Z,94.10
2018-02-03T01:56:58.385Z,94.00
2018-02-03T01:59:26.546Z,94.00
2018-02-03T02:01:55.483Z,93.80
2018-02-03T02:04:23.658Z,93.80
2018-02-03T02:06:51.878Z,93.80
2018-02-03T02:09:20.109Z,93.80
2018-02-03T02:11:48.313Z,93.70
2018-02-03T02:14:16.504Z,93.80
2018-02-03T02:16:45.461Z,93.60
2018-02-03T02:19:13.626Z,93.60
2018-02-03T02:21:41.790Z,93.60
2018-02-03T02:24:09.950Z,93.80
2018-02-03T02:26:38.109Z,93.60
2018-02-03T02:29:06.282Z,93.70
2018-02-03T02:31:34.454Z,93.70
2018-02-03T02:34:02.662Z,93.70
2018-02-03T02:36:30.834Z,93.70
2018-02-03T02:38:59.000Z,93.60
2018-02-03T02:41:27.194Z,93.60
2018-02-03T02:43:55.393Z,93.70
2018-02-03T02:46:23.558Z,93.60
2018-02-03T02:48:51.745Z,93.60
2018-02-03T02:51:19.931Z,93.50
2018-02-03T02:53:48.872Z,93.30
2018-02-03T02:56:17.061Z,93.30
2018-02-03T02:58:45.246Z,93.20
2018-02-03T03:01:13.450Z,93.20
2018-02-03T03:03:41.617Z,93.60
2018-02-03T03:06:10.577Z,93.80
2018-02-03T03:08:38.737Z,93.80
2018-02-03T03:11:06.912Z,94.00
2018-02-03T03:13:35.106Z,94.00
2018-02-03T03:16:03.277Z,94.10
2018-02-03T03:18:31.452Z,94.40
2018-02-03T03:20:59.622Z,94.30
2018-02-03T03:23:27.794Z,94.50
2018-02-03T03:25:55.956Z,94.50
2018-02-03T03:28:24.114Z,94.60
2018-02-03T03:30:52.310Z,94.60
2018-02-03T03:33:20.505Z,94.70
2018-02-03T03:35:48.696Z,94.60
2018-02-03T03:38:16.872Z,94.50
2018-02-03T03:40:45.051Z,94.50
2018-02-03T03:43:13.220Z,94.50
2018-02-03T03:45:41.386Z,94.50
2018-02-03T03:48:09.597Z,94.30
2018-02-03T03:50:38.530Z,94.20
2018-02-03T03:53:06.702Z,94.10
2018-02-03T03:55:34.890Z,94.20
2018-02-03T03:58:03.063Z,94.10
2018-02-03T04:00:31.232Z,94.00
2018-02-03T04:02:59.411Z,94.10
2018-02-03T04:05:27.601Z,94.20
2018-02-03T04:07:55.773Z,94.10
2018-02-03T04:10:23.952Z,94.10
2018-02-03T04:12:52.130Z,94.00
2018-02-03T04:15:20.318Z,93.90
2018-02-03T04:17:48.513Z,93.90
2018-02-03T04:20:17.443Z,94.00
2018-02-03T04:22:45.641Z,93.90
2018-02-03T04:25:13.822Z,94.00
2018-02-03T04:27:41.977Z,94.00
2018-02-03T04:30:10.151Z,94.10
2018-02-03T04:32:38.332Z,94.10
2018-02-03T04:35:06.498Z,94.10
2018-02-03T04:37:34.662Z,94.20
2018-02-03T04:40:02.828Z,94.00
2018-02-03T04:42:31.037Z,93.80
2018-02-03T04:44:59.205Z,93.70
2018-02-03T04:47:27.361Z,93.70
2018-02-03T04:49:55.540Z,93.60
2018-02-03T04:52:23.713Z,93.60
2018-02-03T04:54:51.878Z,93.50
2018-02-03T04:57:20.066Z,93.60
2018-02-03T04:59:48.229Z,93.60
2018-02-03T05:02:16.386Z,93.70
2018-02-03T05:04:44.582Z,93.70
2018-02-03T05:07:12.773Z,93.30
2018-02-03T05:09:40.946Z,93.10
2018-02-03T05:12:09.106Z,93.10
2018-02-03T05:14:37.274Z,93.20
2018-02-03T05:17:05.438Z,93.30
2018-02-03T05:19:33.629Z,93.50
2018-02-03T05:22:01.795Z,93.60
2018-02-03T05:24:30.186Z,93.70
2018-02-03T05:26:58.366Z,93.80
2018-02-03T05:29:26.543Z,93.90
2018-02-03T05:31:54.707Z,94.00
2018-02-03T05:34:22.885Z,94.00
2018-02-03T05:36:51.054Z,93.90
2018-02-03T05:39:19.251Z,93.80
2018-02-03T05:41:47.429Z,93.90
2018-02-03T05:44:16.405Z,94.00
2018-02-03T05:46:44.598Z,94.00
2018-02-03T05:49:12.788Z,93.90
2018-02-03T05:51:40.963Z,93.80
2018-02-03T05:54:09.133Z,93.70
2018-02-03T05:56:37.297Z,93.50
2018-02-03T05:59:05.470Z,93.80
2018-02-03T06:01:33.637Z,93.90
2018-02-03T06:04:01.804Z,93.80
2018-02-03T06:06:29.968Z,93.80
2018-02-03T06:08:58.136Z,93.80
2018-02-03T06:11:26.329Z,93.80
2018-02-03T06:13:54.504Z,93.80
2018-02-03T06:16:22.667Z,93.80
2018-02-03T06:18:50.831Z,93.90
2018-02-03T06:21:19.015Z,94.00
2018-02-03T06:23:47.218Z,94.00
2018-02-03T06:26:15.437Z,93.90
2018-02-03T06:28:43.606Z,93.90
2018-02-03T06:31:11.782Z,94.00
2018-02-03T06:33:39.980Z,93.80
2018-02-03T06:36:08.141Z,93.80
2018-02-03T06:38:36.329Z,93.80
2018-02-03T06:41:04.497Z,93.80
2018-02-03T06:43:32.674Z,93.80
2018-02-03T06:46:00.852Z,93.80
2018-02-03T06:48:29.092Z,93.70
2018-02-03T06:50:58.037Z,94.10
2018-02-03T06:53:26.490Z,94.00
2018-02-03T06:55:54.688Z,94.50
2018-02-03T06:58:22.866Z,94.10
2018-02-03T07:00:51.033Z,93.60
2018-02-03T07:03:19.232Z,93.80
2018-02-03T07:05:47.430Z,94.00
2018-02-03T07:08:15.618Z,93.50
2018-02-03T07:10:44.567Z,93.40
2018-02-03T07:13:12.735Z,93.40
2018-02-03T07:15:40.953Z,93.40
2018-02-03T07:18:09.145Z,93.40
2018-02-03T07:20:37.378Z,93.30
2018-02-03T07:23:05.601Z,93.00
2018-02-03T07:25:33.848Z,92.80
2018-02-03T07:28:02.803Z,92.80
2018-02-03T07:30:31.428Z,92.80
2018-02-03T07:32:59.626Z,92.60
2018-02-03T07:35:27.802Z,92.60
2018-02-03T07:37:56.015Z,92.40
2018-02-03T07:40:24.182Z,92.40
2018-02-03T07:42:52.349Z,92.40
2018-02-03T07:45:20.546Z,92.30
2018-02-03T07:47:48.764Z,92.20
2018-02-03T07:50:17.699Z,91.80
2018-02-03T07:52:45.939Z,91.70
2018-02-03T07:55:14.938Z,91.30
2018-02-03T07:57:43.145Z,91.30
2018-02-03T08:00:11.357Z,91.40
2018-02-03T08:02:39.558Z,91.30
2018-02-03T08:05:08.497Z,91.20
2018-02-03T08:07:36.666Z,91.20
2018-02-03T08:10:04.897Z,91.30
2018-02-03T08:12:33.872Z,91.60
2018-02-03T08:15:02.153Z,91.60
2018-02-03T08:17:31.093Z,91.60
2018-02-03T08:19:59.266Z,91.50
2018-02-03T08:22:27.455Z,91.60
2018-02-03T08:24:55.651Z,91.50
2018-02-03T08:27:23.902Z,91.50
2018-02-03T08:29:52.118Z,91.60
2018-02-03T08:32:20.311Z,91.50
2018-02-03T08:34:49.272Z,91.50
2018-02-03T08:37:17.504Z,91.60
2018-02-03T08:39:45.732Z,91.40
2018-02-03T08:42:13.961Z,91.40
2018-02-03T08:44:42.182Z,91.50
2018-02-03T08:47:10.386Z,91.40
2018-02-03T08:49:38.587Z,91.40
2018-02-03T08:52:06.900Z,91.10
2018-02-03T08:54:35.073Z,91.10
2018-02-03T08:57:03.266Z,91.10
2018-02-03T08:59:31.505Z,90.90
2018-02-03T09:01:59.744Z,90.90
2018-02-03T09:04:27.957Z,90.20
2018-02-03T09:06:56.130Z,89.70
2018-02-03T09:09:25.081Z,90.20
2018-02-03T09:12:12.735Z,89.40
2018-02-03T09:14:40.922Z,89.50
2018-02-03T09:17:09.143Z,89.30
2018-02-03T09:19:37.337Z,90.00
2018-02-03T09:22:06.332Z,90.00
2018-02-03T09:24:35.277Z,89.80
2018-02-03T09:27:03.501Z,89.80
2018-02-03T09:29:32.470Z,88.80
2018-02-03T09:32:00.659Z,88.70
2018-02-03T09:34:29.587Z,87.10
2018-02-03T09:36:57.777Z,87.10
2018-02-03T09:39:26.243Z,86.80
2018-02-03T09:41:54.456Z,87.40
2018-02-03T09:44:22.645Z,87.40
2018-02-03T09:46:50.825Z,87.40
2018-02-03T09:49:19.788Z,86.90
2018-02-03T09:51:47.965Z,86.80
2018-02-03T09:54:16.185Z,86.40
2018-02-03T09:56:45.153Z,87.10
2018-02-03T09:59:13.330Z,87.10
2018-02-03T10:01:41.517Z,87.40
2018-02-03T10:04:10.511Z,87.40
2018-02-03T10:06:39.506Z,87.70
2018-02-03T10:09:08.463Z,88.40
2018-02-03T10:11:36.665Z,88.30
2018-02-03T10:14:05.648Z,87.00
2018-02-03T10:16:33.849Z,87.00
2018-02-03T10:19:02.826Z,86.10
2018-02-03T10:21:31.829Z,86.30
2018-02-03T10:24:00.806Z,86.70
2018-02-03T10:26:29.058Z,86.70
2018-02-03T10:28:57.261Z,87.00
2018-02-03T10:31:25.446Z,87.40
2018-02-03T10:33:54.444Z,88.20
2018-02-03T10:36:23.448Z,88.70
2018-02-03T10:38:51.710Z,88.60
2018-02-03T10:41:20.678Z,89.60
2018-02-03T10:43:48.895Z,89.50
2018-02-03T10:46:17.138Z,90.20
2018-02-03T10:48:45.343Z,90.50
2018-02-03T10:51:14.333Z,90.70
2018-02-03T10:53:43.311Z,90.90
2018-02-03T10:56:12.302Z,91.00
2018-02-03T10:58:40.520Z,91.00
2018-02-03T11:01:10.623Z,91.20
2018-02-03T11:03:38.874Z,91.20
2018-02-03T11:06:08.847Z,91.20
2018-02-03T11:08:37.058Z,91.10
2018-02-03T11:11:05.242Z,91.00
2018-02-03T11:13:34.210Z,90.90
2018-02-03T11:16:02.425Z,90.90
2018-02-03T11:18:31.378Z,90.70
2018-02-03T11:20:59.599Z,90.70
2018-02-03T11:23:28.592Z,91.00
2018-02-03T11:25:56.811Z,90.60
2018-02-03T11:28:25.014Z,90.30
2018-02-03T11:30:53.223Z,90.40
2018-02-03T11:33:21.420Z,90.70
2018-02-03T11:35:49.607Z,90.80
2018-02-03T11:38:17.893Z,90.20
2018-02-03T11:40:46.071Z,90.40
2018-02-03T11:43:14.492Z,90.30
2018-02-03T11:45:43.445Z,88.70
2018-02-03T11:48:11.710Z,88.70
2018-02-03T11:50:40.689Z,90.10
2018-02-03T11:53:08.865Z,90.10
2018-02-03T11:55:37.091Z,90.30
2018-02-03T11:58:05.277Z,90.20
2018-02-03T12:00:34.268Z,90.10
2018-02-03T12:03:03.256Z,90.10
2018-02-03T12:05:32.240Z,90.20
2018-02-03T12:08:00.443Z,90.20
2018-02-03T12:10:28.664Z,88.80
2018-02-03T12:12:56.853Z,88.70
2018-02-03T12:15:25.125Z,88.50
2018-02-03T12:17:53.404Z,88.40
2018-02-03T12:20:21.597Z,88.40
2018-02-03T12:22:49.811Z,87.10
2018-02-03T12:25:18.023Z,87.40
2018-02-03T12:27:46.212Z,87.10
2018-02-03T12:30:14.415Z,87.00
2018-02-03T12:32:46.235Z,85.70
2018-02-03T12:35:18.418Z,85.70
2018-02-03T12:37:46.616Z,85.00
2018-02-03T12:40:15.564Z,85.80
2018-02-03T12:42:43.769Z,85.00
2018-02-03T12:45:11.986Z,85.80
2018-02-03T12:47:40.197Z,84.90
2018-02-03T12:50:08.398Z,82.90
2018-02-03T12:52:36.642Z,82.50
2018-02-03T12:55:04.854Z,80.60
2018-02-03T12:57:33.825Z,72.80
2018-02-03T13:00:02.030Z,72.80
2018-02-03T13:02:30.990Z,58.00
2018-02-03T13:04:59.246Z,57.80
2018-02-03T13:07:27.454Z,52.00
2018-02-03T13:09:55.672Z,47.00
2018-02-03T13:12:23.856Z,43.00
2018-02-03T13:14:52.047Z,39.60
2018-02-03T13:17:20.258Z,37.70
2018-02-03T13:19:48.465Z,35.10
2018-02-03T13:22:16.771Z,34.30
2018-02-03T13:24:44.986Z,32.50
2018-02-03T13:27:13.190Z,36.20
2018-02-03T13:29:42.131Z,39.00
2018-02-03T13:32:10.351Z,39.00
2018-02-03T13:34:39.309Z,34.10
2018-02-03T13:37:07.546Z,34.10
2018-02-03T13:39:52.070Z,34.10
2018-02-03T13:42:21.054Z,36.50
2018-02-03T13:44:49.253Z,39.50
2018-02-03T13:47:18.207Z,38.70
2018-02-03T13:49:46.446Z,38.70
2018-02-03T13:52:14.617Z,40.20
2018-02-03T13:54:51.915Z,41.30
2018-02-03T13:57:25.302Z,42.70
2018-02-03T13:59:53.787Z,45.90
2018-02-03T14:02:21.974Z,49.50
2018-02-03T14:04:50.291Z,51.80
2018-02-03T14:07:20.706Z,56.30
2018-02-03T14:09:49.701Z,58.30
2018-02-03T14:12:17.899Z,58.30
2018-02-03T14:14:46.880Z,63.00
2018-02-03T14:17:15.101Z,62.80
2018-02-03T14:19:43.331Z,65.50
2018-02-03T14:22:12.362Z,68.90
2018-02-03T14:24:46.300Z,68.80
2018-02-03T14:27:14.517Z,69.80
2018-02-03T14:29:43.621Z,71.60
2018-02-03T14:32:12.640Z,72.60
2018-02-03T14:34:40.869Z,72.60
2018-02-03T14:37:09.094Z,73.10
2018-02-03T14:39:37.298Z,74.80
2018-02-03T14:42:05.534Z,75.50
2018-02-03T14:44:33.757Z,75.20
2018-02-03T14:47:01.941Z,76.70
2018-02-03T14:49:30.144Z,78.00
2018-02-03T14:51:59.116Z,78.90
2018-02-03T14:54:27.646Z,78.80
2018-02-03T14:56:55.860Z,79.70
2018-02-03T14:59:24.073Z,79.40
2018-02-03T15:01:53.143Z,80.20
2018-02-03T16:20:19.076Z,80.60
2018-02-03T16:22:47.351Z,90.80
2018-02-03T16:25:15.577Z,90.50
2018-02-03T16:27:43.799Z,90.50
2018-02-03T16:30:12.136Z,90.50
2018-02-03T16:32:40.338Z,90.60
2018-02-03T16:35:08.513Z,90.60
2018-02-03T16:37:36.758Z,90.50
2018-02-03T16:40:04.999Z,90.50
2018-02-03T16:42:33.230Z,90.50
2018-02-03T16:45:01.458Z,90.70
2018-02-03T16:47:29.663Z,90.40
2018-02-03T16:49:57.883Z,90.40
2018-02-03T16:52:26.157Z,90.20
2018-02-03T16:54:54.442Z,89.70
2018-02-03T16:57:22.693Z,90.00
2018-02-03T16:59:50.912Z,90.10
2018-02-03T17:02:19.148Z,90.20
2018-02-03T17:04:47.433Z,90.30
2018-02-03T17:07:15.652Z,90.50
2018-02-03T17:09:44.617Z,90.70
2018-02-03T17:12:12.843Z,90.70
2018-02-03T17:14:41.110Z,90.70
2018-02-03T17:17:09.390Z,90.80
2018-02-03T17:19:37.667Z,91.00
2018-02-03T17:22:05.927Z,91.10
2018-02-03T17:24:34.928Z,91.10
2018-02-03T17:27:03.932Z,90.60
2018-02-03T17:29:32.194Z,90.60
2018-02-03T17:32:00.410Z,90.60
2018-02-03T17:34:28.650Z,90.50
2018-02-03T17:37:03.307Z,90.70
2018-02-03T17:39:31.565Z,90.70
2018-02-03T17:41:59.857Z,90.70
2018-02-03T17:44:28.057Z,90.90
2018-02-03T17:47:01.865Z,90.90
2018-02-03T17:49:30.059Z,91.00
2018-02-03T17:51:58.366Z,91.00
2018-02-03T17:54:27.385Z,91.50
2018-02-03T17:57:01.039Z,91.50
2018-02-03T17:59:29.233Z,91.10
2018-02-03T18:01:57.469Z,91.10
2018-02-03T18:04:25.648Z,91.20
2018-02-03T18:06:59.275Z,91.30
2018-02-03T18:09:28.335Z,91.40
2018-02-03T18:11:56.530Z,91.40
2018-02-03T18:14:24.722Z,91.30
2018-02-03T18:16:53.730Z,91.30
2018-02-03T18:19:22.731Z,91.30
2018-02-03T18:21:50.956Z,91.30
2018-02-03T18:24:19.149Z,91.30
2018-02-03T18:26:47.364Z,91.30
2018-02-03T18:29:15.597Z,91.30
2018-02-03T18:31:43.797Z,91.40
2018-02-03T18:34:12.749Z,91.40
2018-02-03T18:36:40.978Z,91.40
2018-02-03T18:39:09.235Z,91.30
2018-02-03T18:41:38.236Z,91.30
2018-02-03T18:44:07.259Z,91.40
2018-02-03T18:46:35.521Z,91.40
2018-02-03T18:49:03.711Z,91.90
2018-02-03T18:51:31.963Z,92.60
2018-02-03T18:54:00.963Z,91.60
2018-02-03T18:56:29.169Z,91.50
2018-02-03T18:58:57.391Z,91.40
2018-02-03T19:01:26.381Z,91.20
2018-02-03T19:03:54.633Z,91.20
2018-02-03T19:06:22.828Z,91.10
2018-02-03T19:08:51.019Z,91.30
2018-02-03T19:11:20.002Z,91.30
2018-02-03T19:13:48.188Z,91.20
2018-02-03T19:16:17.152Z,91.50
2018-02-03T19:18:45.369Z,91.40
2018-02-03T19:21:13.600Z,91.50
2018-02-03T19:23:41.786Z,91.60
2018-02-03T19:26:09.988Z,91.60
2018-02-03T19:28:38.960Z,91.50
2018-02-03T19:31:07.127Z,91.50
2018-02-03T19:33:35.332Z,91.50
2018-02-03T19:36:04.348Z,91.60
2018-02-03T19:38:32.545Z,91.60
2018-02-03T19:41:00.743Z,91.60
2018-02-03T19:43:28.948Z,91.50
2018-02-03T19:45:57.944Z,91.50
2018-02-03T19:48:26.949Z,91.50
2018-02-03T19:50:55.158Z,91.50
2018-02-03T19:53:23.331Z,91.40
2018-02-03T19:55:51.560Z,91.40
2018-02-03T19:58:20.531Z,91.60
2018-02-03T20:00:48.707Z,91.60
2018-02-03T20:03:16.993Z,91.50
2018-02-03T20:05:46.005Z,91.40
2018-02-03T20:08:14.198Z,91.40
2018-02-03T20:10:42.376Z,91.40
2018-02-03T20:13:10.552Z,91.40
2018-02-03T20:15:38.779Z,91.50
2018-02-03T20:18:06.953Z,91.50
2018-02-03T20:20:35.221Z,91.80
2018-02-03T20:23:03.405Z,91.50
2018-02-03T20:25:31.597Z,91.40
2018-02-03T20:28:00.567Z,91.60
2018-02-03T20:30:32.977Z,91.50
2018-02-03T20:33:04.832Z,91.50
2018-02-03T20:35:33.250Z,91.60
2018-02-03T20:38:05.556Z,91.60
2018-02-03T20:40:33.742Z,91.60
2018-02-03T20:43:07.322Z,91.60
2018-02-03T20:45:35.536Z,91.50
2018-02-03T20:48:04.010Z,91.50
2018-02-03T20:50:33.248Z,91.60
2018-02-03T20:53:01.474Z,91.50
2018-02-03T20:55:32.266Z,91.60
2018-02-03T20:58:00.493Z,91.50
2018-02-03T21:00:30.564Z,91.50
2018-02-03T21:02:58.756Z,91.50
2018-02-03T21:05:27.916Z,91.60
2018-02-03T21:07:56.111Z,91.60
2018-02-03T21:10:24.297Z,91.70
2018-02-03T21:12:53.249Z,91.70
2018-02-03T21:15:21.497Z,91.70
2018-02-03T21:17:50.520Z,91.70
2018-02-03T21:20:18.759Z,91.70
2018-02-03T21:22:46.973Z,91.60
2018-02-03T21:25:15.201Z,91.60
2018-02-03T21:27:43.409Z,91.60
2018-02-03T21:30:12.382Z,91.50
2018-02-03T21:32:41.368Z,91.50
2018-02-03T21:35:09.570Z,91.50
2018-02-03T21:37:38.545Z,91.70
2018-02-03T21:40:07.525Z,91.90
2018-02-03T21:42:35.776Z,91.90
2018-02-03T21:45:03.997Z,92.20
2018-02-03T21:47:32.974Z,92.10
2018-02-03T21:50:01.194Z,92.10
2018-02-03T21:52:29.399Z,92.20
2018-02-03T21:54:57.631Z,92.20
2018-02-03T21:57:26.604Z,92.70
2018-02-03T21:59:54.795Z,92.40
2018-02-03T22:02:23.957Z,92.70
2018-02-03T22:04:52.161Z,92.60
2018-02-03T22:07:21.116Z,92.80
2018-02-03T22:09:49.319Z,92.80
2018-02-03T22:12:18.295Z,92.90
2018-02-03T22:14:46.479Z,92.90
2018-02-03T22:17:14.718Z,93.00
2018-02-03T22:19:42.925Z,93.00
2018-02-03T22:22:11.124Z,93.10
2018-02-03T22:24:40.092Z,93.20
2018-02-03T22:27:08.277Z,93.20
2018-02-03T22:29:36.443Z,93.30
2018-02-03T22:32:04.617Z,93.60
2018-02-03T22:34:33.206Z,93.60
2018-02-03T22:37:01.452Z,93.50
2018-02-03T22:39:29.613Z,93.80
2018-02-03T22:41:57.774Z,93.90
2018-02-03T22:44:25.960Z,93.90
2018-02-03T22:46:54.121Z,93.80
2018-02-03T22:49:22.308Z,93.90
2018-02-03T22:51:50.508Z,93.80
2018-02-03T22:54:18.686Z,93.70
2018-02-03T22:56:46.849Z,94.10
2018-02-03T22:59:15.134Z,93.70
2018-02-03T23:01:43.306Z,93.70
2018-02-03T23:04:11.480Z,93.70
2018-02-03T23:06:39.671Z,93.60
2018-02-03T23:09:07.860Z,93.60
2018-02-03T23:11:36.799Z,93.60
2018-02-03T23:14:04.978Z,93.60
2018-02-03T23:16:33.171Z,93.70
2018-02-03T23:19:01.357Z,93.70
2018-02-03T23:21:29.533Z,93.70
2018-02-03T23:23:57.726Z,93.70
2018-02-03T23:26:26.664Z,93.70
2018-02-03T23:28:54.889Z,93.70
2018-02-03T23:31:23.055Z,93.70
2018-02-03T23:33:51.242Z,93.60
2018-02-03T23:36:19.423Z,93.60
2018-02-03T23:38:48.380Z,93.60
2018-02-03T23:41:16.547Z,93.60
2018-02-03T23:43:44.735Z,93.60
2018-02-03T23:46:12.917Z,93.60
2018-02-03T23:48:41.103Z,93.60
2018-02-03T23:51:09.277Z,93.70
2018-02-03T23:53:37.446Z,93.60
2018-02-03T23:56:05.614Z,93.60
2018-02-03T23:58:33.804Z,93.60
